Time;durP1;ratioP1;P1;durP2;ratioP2;P2;SDS_P1;SDS_P2;PMS_P1;PMS_P2;Temp;Humidity;BMP_temperature;BMP_pressure;BME280_temperature;BME280_humidity;BME280_pressure;Samples;Min_cycle;Max_cycle;Signal;HPM_P1;HPM_P2
2021/11/18 00:04:05;;;;;;;1999.90;999.90;;;;;;;8.44;77.54;101746.31;15659745;28;20465;-60
2021/11/18 00:11:39;;;;;;;1999.90;999.90;;;;;;;8.52;77.47;101740.13;15616559;28;20046;-60
2021/11/18 00:19:11;;;;;;;1999.90;999.90;;;;;;;8.54;76.84;101746.22;15632322;28;20521;-58
2021/11/18 00:26:45;;;;;;;1999.90;999.90;;;;;;;8.48;76.97;101759.38;15693358;28;20045;-58
2021/11/18 00:34:19;;;;;;;1999.90;999.90;;;;;;;8.33;77.87;101760.28;15619808;28;20041;-59
2021/11/18 00:41:54;;;;;;;1999.90;999.90;;;;;;;8.31;78.04;101765.31;15649539;28;20111;-58
2021/11/18 00:49:27;;;;;;;1999.90;999.90;;;;;;;8.31;77.38;101773.66;15669248;28;20049;-58
2021/11/18 00:57:01;;;;;;;1999.90;999.90;;;;;;;8.36;77.34;101782.00;15681331;28;20041;-56
2021/11/18 01:04:34;;;;;;;1999.90;999.90;;;;;;;8.18;77.11;101781.84;15728038;28;20131;-59
2021/11/18 01:12:10;;;;;;;1999.90;999.90;;;;;;;8.32;77.35;101792.00;15663897;28;20124;-59
2021/11/18 01:19:44;;;;;;;1999.90;999.90;;;;;;;8.20;76.77;101794.34;15637152;28;20094;-58
2021/11/18 01:27:19;;;;;;;1999.90;999.90;;;;;;;8.23;77.09;101798.47;15631711;28;20040;-60
2021/11/18 01:34:51;;;;;;;1999.90;999.90;;;;;;;8.36;76.46;101801.47;15691450;28;20624;-59
2021/11/18 01:42:26;;;;;;;1999.90;999.90;;;;;;;8.27;77.06;101805.13;15633390;28;20041;-59
2021/11/18 01:49:59;;;;;;;1999.90;999.90;;;;;;;8.03;77.58;101830.91;15653727;28;20053;-59
2021/11/18 01:57:36;;;;;;;1999.90;999.90;;;;;;;8.13;77.22;101831.94;15651289;28;20482;-60
2021/11/18 02:05:22;;;;;;;1999.90;999.90;;;;;;;8.11;76.54;101821.94;15655286;28;20091;-59
2021/11/18 02:13:06;;;;;;;1999.90;999.90;;;;;;;8.00;77.83;101837.03;15648096;28;20045;-58
2021/11/18 02:20:41;;;;;;;1999.90;999.90;;;;;;;8.10;76.99;101841.69;15652053;28;20166;-59
2021/11/18 02:28:13;;;;;;;1999.90;999.90;;;;;;;8.07;77.54;101837.53;15632688;28;20038;-57
2021/11/18 02:35:48;;;;;;;1999.90;999.90;;;;;;;8.08;77.78;101847.53;15629031;28;20044;-59
2021/11/18 02:43:21;;;;;;;1999.90;999.90;;;;;;;8.11;77.80;101844.19;15656639;28;20056;-59
2021/11/18 02:51:01;;;;;;;1999.90;999.90;;;;;;;8.03;77.38;101846.75;15691237;28;20498;-59
2021/11/18 02:58:35;;;;;;;1999.90;999.90;;;;;;;8.00;78.03;101858.44;15633363;28;20064;-59
2021/11/18 03:06:09;;;;;;;;;;;;;;;8.18;77.87;101859.72;15694499;28;20503;-58
2021/11/18 03:13:42;;;;;;;1999.90;999.90;;;;;;;8.03;78.52;101847.59;15645789;28;20019;-59
2021/11/18 03:21:18;;;;;;;;;;;;;;;8.45;77.46;101843.41;15650325;28;20077;-59
2021/11/18 03:28:56;;;;;;;1999.90;999.90;;;;;;;8.17;78.61;101846.94;15615824;28;20471;-57
2021/11/18 03:36:31;;;;;;;1999.90;999.90;;;;;;;8.20;78.41;101851.91;15626425;28;20489;-59
2021/11/18 03:44:08;;;;;;;1999.90;999.90;;;;;;;8.20;78.42;101849.94;15672004;28;20450;-57
2021/11/18 03:51:46;;;;;;;1999.90;999.90;;;;;;;8.41;77.25;101870.13;15672852;28;20045;-58
2021/11/18 03:59:21;;;;;;;1999.90;999.90;;;;;;;8.28;77.94;101862.41;15691553;28;20063;-54
2021/11/18 04:06:55;;;;;;;1999.90;999.90;;;;;;;8.22;78.37;101871.91;15681456;28;20048;-62
2021/11/18 04:14:30;;;;;;;1999.90;999.90;;;;;;;8.51;77.04;101878.38;15621562;28;20045;-63
2021/11/18 04:22:05;;;;;;;1999.90;999.90;;;;;;;8.31;78.15;101893.25;15659449;28;20041;-63
2021/11/18 04:29:41;;;;;;;1999.90;999.90;;;;;;;8.30;77.95;101899.09;15687656;28;20091;-63
2021/11/18 04:37:15;;;;;;;1999.90;999.90;;;;;;;8.23;78.33;101902.22;15664122;28;20103;-61
2021/11/18 04:44:48;;;;;;;1999.90;999.90;;;;;;;8.12;78.66;101908.94;15637249;28;20062;-62
2021/11/18 04:52:24;;;;;;;1999.90;999.90;;;;;;;8.31;77.84;101897.97;15676454;28;20124;-63
2021/11/18 04:59:57;;;;;;;1999.90;999.90;;;;;;;8.27;77.41;101900.53;15687387;28;20052;-63
2021/11/18 05:07:34;;;;;;;1999.90;999.90;;;;;;;8.23;77.27;101896.66;15682275;28;20045;-63
2021/11/18 05:15:11;;;;;;;1999.90;999.90;;;;;;;8.18;77.44;101898.63;15644456;28;20132;-62
2021/11/18 05:22:47;;;;;;;1999.90;999.90;;;;;;;8.26;77.20;101917.50;15673610;28;20041;-62
2021/11/18 05:30:27;;;;;;;1999.90;999.90;;;;;;;8.41;76.22;101909.06;15652939;28;20037;-63
2021/11/18 05:38:02;;;;;;;1999.90;999.90;;;;;;;8.18;77.01;101915.31;15644842;28;20451;-64
2021/11/18 05:45:36;;;;;;;1999.90;999.90;;;;;;;8.31;76.79;101909.09;15599630;28;20057;-64
2021/11/18 05:53:18;;;;;;;1999.90;999.90;;;;;;;8.18;76.96;101930.06;15617416;28;20117;-62
2021/11/18 06:00:55;;;;;;;1999.90;999.90;;;;;;;8.08;77.49;101924.56;15689917;28;20386;-64
2021/11/18 06:08:33;;;;;;;1999.90;999.90;;;;;;;8.17;77.28;101933.13;15647391;28;20033;-63
2021/11/18 06:16:13;;;;;;;1999.90;999.90;;;;;;;8.18;77.14;101921.72;15623906;28;20234;-62
2021/11/18 06:23:47;;;;;;;1999.90;999.90;;;;;;;8.25;76.39;101926.97;15610330;28;20133;-64
2021/11/18 06:31:20;;;;;;;1999.90;999.90;;;;;;;8.34;76.29;101928.03;15679878;28;20041;-64
2021/11/18 06:38:55;;;;;;;1999.90;999.90;;;;;;;8.43;75.79;101937.41;15660317;28;20402;-62
2021/11/18 06:46:31;;;;;;;1999.90;999.90;;;;;;;8.59;75.54;101954.84;15671174;28;20073;-63
2021/11/18 06:54:05;;;;;;;1999.90;999.90;;;;;;;8.61;75.81;101959.00;15671257;28;20516;-63
2021/11/18 07:01:41;;;;;;;1999.90;999.90;;;;;;;8.88;75.08;101974.38;15675282;28;20052;-64
2021/11/18 07:09:16;;;;;;;1999.90;999.90;;;;;;;9.03;74.65;101981.75;15699207;28;20040;-61
2021/11/18 07:17:09;;;;;;;1999.90;999.90;;;;;;;9.09;74.58;101973.06;15675737;28;20071;-61
2021/11/18 07:24:44;;;;;;;1999.90;999.90;;;;;;;9.30;74.21;101972.88;15663760;28;20045;-62
2021/11/18 07:32:17;;;;;;;1999.90;999.90;;;;;;;9.52;73.88;101976.81;15681791;28;20124;-60
2021/11/18 07:39:51;;;;;;;1999.90;999.90;;;;;;;9.78;73.01;101999.63;15680678;28;20582;-60
2021/11/18 07:47:24;;;;;;;1999.90;999.90;;;;;;;9.78;74.01;102004.38;15663282;28;20502;-58
2021/11/18 07:54:59;;;;;;;1999.90;999.90;;;;;;;9.93;73.32;102008.97;15701875;28;20106;-57
2021/11/18 08:02:32;;;;;;;1999.90;999.90;;;;;;;9.61;74.83;102010.44;15676906;28;20045;-56
2021/11/18 08:10:11;;;;;;;1999.90;999.90;;;;;;;9.93;74.22;102020.13;15736191;28;20032;-56
2021/11/18 08:17:51;;;;;;;1999.90;999.90;;;;;;;9.99;74.91;102030.91;15738869;28;20508;-57
2021/11/18 08:25:29;;;;;;;1999.90;999.90;;;;;;;10.18;75.72;102022.56;15694807;28;20045;-59
2021/11/18 08:33:07;;;;;;;1999.90;999.90;;;;;;;10.18;75.37;102030.13;15674481;28;20041;-60
2021/11/18 08:40:46;;;;;;;1999.90;999.90;;;;;;;10.39;75.29;102015.63;15674732;28;20037;-60
2021/11/18 08:48:19;;;;;;;1999.90;999.90;;;;;;;10.28;75.91;102030.00;15658666;28;20069;-60
2021/11/18 08:55:57;;;;;;;1999.90;999.90;;;;;;;10.15;76.69;102030.72;15674181;28;20040;-60
2021/11/18 09:03:33;;;;;;;1999.90;999.90;;;;;;;10.57;75.68;102039.09;15674055;28;20041;-60
2021/11/18 09:11:14;;;;;;;1999.90;999.90;;;;;;;10.39;76.37;102054.69;15681466;28;20506;-58
2021/11/18 09:18:52;;;;;;;1999.90;999.90;;;;;;;10.56;75.52;102051.41;15734633;28;20048;-59
2021/11/18 09:26:30;;;;;;;1999.90;999.90;;;;;;;10.65;75.72;102051.56;15595824;28;20436;-56
2021/11/18 09:34:04;;;;;;;1999.90;999.90;;;;;;;10.84;74.57;102062.75;15654212;28;20072;-62
2021/11/18 09:41:52;;;;;;;1999.90;999.90;;;;;;;10.86;75.22;102061.28;15671010;28;20482;-57
2021/11/18 09:49:50;;;;;;;1999.90;999.90;;;;;;;10.77;75.28;102048.31;15671763;28;20148;-58
2021/11/18 09:57:41;;;;;;;1999.90;999.90;;;;;;;10.86;74.95;102052.91;15649396;28;20128;-60
2021/11/18 10:05:24;;;;;;;1999.90;999.90;;;;;;;11.13;74.79;102034.59;15667793;22;20037;-62
2021/11/18 10:13:30;;;;;;;1999.90;999.90;;;;;;;11.18;74.55;102007.41;15652623;28;20041;-60
2021/11/18 10:21:06;;;;;;;1999.90;999.90;;;;;;;11.44;73.15;102013.38;15625452;28;20053;-62
2021/11/18 10:28:45;;;;;;;1999.90;999.90;;;;;;;11.20;73.92;102002.34;15659647;28;20383;-63
2021/11/18 10:36:41;;;;;;;1999.90;999.90;;;;;;;11.40;73.13;102031.06;15650423;28;20053;-59
2021/11/18 10:44:21;;;;;;;1999.90;999.90;;;;;;;11.74;71.99;102025.94;15658176;28;20573;-55
2021/11/18 10:51:56;;;;;;;1999.90;999.90;;;;;;;11.54;72.54;102034.72;15648062;28;20045;-61
2021/11/18 10:59:40;;;;;;;1999.90;999.90;;;;;;;11.46;72.53;102016.72;15679738;28;20337;-60
2021/11/18 11:07:13;;;;;;;1999.90;999.90;;;;;;;12.14;70.96;102017.91;15678588;28;20047;-59
2021/11/18 11:14:57;;;;;;;1999.90;999.90;;;;;;;12.20;70.20;101985.88;15671528;28;20045;-60
2021/11/18 11:22:37;;;;;;;1999.90;999.90;;;;;;;11.96;70.82;101990.88;15659798;28;20433;-58
2021/11/18 11:30:19;;;;;;;1999.90;999.90;;;;;;;12.12;70.69;101995.84;15622784;28;20701;-61
2021/11/18 11:38:19;;;;;;;1999.90;999.90;;;;;;;12.76;68.03;101990.19;15654672;28;20501;-59
2021/11/18 11:46:02;;;;;;;1999.90;999.90;;;;;;;12.49;69.14;101979.06;15660821;28;20573;-61
2021/11/18 11:53:39;;;;;;;1999.90;999.90;;;;;;;12.21;69.36;101967.94;15673403;28;20045;-61
2021/11/18 12:01:21;;;;;;;1999.90;999.90;;;;;;;12.09;69.97;101962.06;15658958;28;20116;-58
2021/11/18 12:08:59;;;;;;;1999.90;999.90;;;;;;;12.79;68.21;101950.31;15678443;28;20432;-61
2021/11/18 12:16:38;;;;;;;1999.90;999.90;;;;;;;13.12;66.98;101950.03;15659082;28;20083;-59
2021/11/18 12:24:19;;;;;;;1999.90;999.90;;;;;;;12.82;67.55;101974.06;15658121;28;20478;-59
2021/11/18 12:32:12;;;;;;;1999.90;999.90;;;;;;;12.53;68.40;101943.72;15668623;28;20455;-60
2021/11/18 12:39:50;;;;;;;1999.90;999.90;;;;;;;12.83;67.54;101942.13;15653932;28;20037;-61
2021/11/18 12:48:09;;;;;;;1999.90;999.90;;;;;;;12.52;68.18;101937.28;15675852;28;20045;-62
2021/11/18 12:55:52;;;;;;;1999.90;999.90;;;;;;;12.51;67.88;101929.19;15676581;28;20488;-61
2021/11/18 13:03:59;;;;;;;1999.90;999.90;;;;;;;12.89;66.79;101926.81;15662599;28;20177;-60
2021/11/18 13:11:54;;;;;;;1999.90;999.90;;;;;;;12.58;67.61;101895.97;15656962;28;20049;-61
2021/11/18 13:19:53;;;;;;;1999.90;999.90;;;;;;;12.54;67.20;101886.56;15654678;28;20056;-61
2021/11/18 13:27:30;;;;;;;1999.90;999.90;;;;;;;12.31;67.71;101885.72;15673246;28;20051;-61
2021/11/18 13:35:18;;;;;;;1999.90;999.90;;;;;;;12.21;68.06;101906.38;15656249;28;20052;-61
2021/11/18 13:43:13;;;;;;;1999.90;999.90;;;;;;;12.23;67.65;101889.28;15652858;28;20033;-60
2021/11/18 13:50:55;;;;;;;1999.90;999.90;;;;;;;12.51;67.05;101902.03;15654520;28;20068;-62
2021/11/18 13:58:34;;;;;;;1999.90;999.90;;;;;;;12.50;67.22;101899.53;15654033;28;20119;-60
2021/11/18 14:06:14;;;;;;;1999.90;999.90;;;;;;;12.43;67.30;101889.63;15651921;28;20056;-63
2021/11/18 14:13:51;;;;;;;1999.90;999.90;;;;;;;12.39;67.00;101918.53;15653186;28;20463;-63
2021/11/18 14:21:31;;;;;;;1999.90;999.90;;;;;;;12.42;66.60;101895.53;15663768;28;20051;-62
2021/11/18 14:29:37;;;;;;;1999.90;999.90;;;;;;;12.38;66.12;101881.31;15663513;28;20363;-60
2021/11/18 14:37:28;;;;;;;1999.90;999.90;;;;;;;12.48;65.52;101883.03;15662125;28;20041;-62
2021/11/18 14:45:12;;;;;;;1999.90;999.90;;;;;;;12.36;65.46;101889.22;15648684;28;20111;-60
2021/11/18 14:52:56;;;;;;;1999.90;999.90;;;;;;;12.46;65.23;101898.50;15640387;28;20092;-62
2021/11/18 15:00:32;;;;;;;1999.90;999.90;;;;;;;12.54;64.65;101886.56;15671806;28;20117;-61
2021/11/18 15:08:08;;;;;;;1999.90;999.90;;;;;;;12.17;65.34;101880.16;15665950;28;20767;-61
2021/11/18 15:15:42;;;;;;;1999.90;999.90;;;;;;;12.03;66.28;101869.00;15668214;28;20045;-61
2021/11/18 15:23:18;;;;;;;1999.90;999.90;;;;;;;12.17;65.68;101863.38;15669391;28;20053;-60
2021/11/18 15:30:54;;;;;;;1999.90;999.90;;;;;;;12.12;66.36;101861.53;15662965;28;20087;-62
2021/11/18 15:38:29;;;;;;;1999.90;999.90;;;;;;;11.77;67.90;101863.13;15648707;28;20049;-62
2021/11/18 15:46:01;;;;;;;1999.90;999.90;;;;;;;11.80;67.44;101848.56;15662306;28;20202;-62
2021/11/18 15:53:38;;;;;;;1999.90;999.90;;;;;;;11.81;67.24;101854.97;15662034;28;20488;-61
2021/11/18 16:01:14;;;;;;;1999.90;999.90;;;;;;;12.01;66.68;101839.72;15666833;22;20067;-59
2021/11/18 16:08:49;;;;;;;1999.90;999.90;;;;;;;11.83;67.03;101835.91;15677929;28;20045;-60
2021/11/18 16:16:24;;;;;;;1999.90;999.90;;;;;;;11.95;66.63;101840.97;15613997;28;20049;-61
2021/11/18 16:23:59;;;;;;;1999.90;999.90;;;;;;;12.01;66.09;101848.94;15616081;28;20056;-61
2021/11/18 16:31:33;;;;;;;1999.90;999.90;;;;;;;11.93;66.27;101834.84;15614950;28;20056;-61
2021/11/18 16:39:07;;;;;;;1999.90;999.90;;;;;;;12.03;66.76;101859.78;15615937;28;20049;-61
2021/11/18 16:46:42;;;;;;;1999.90;999.90;;;;;;;11.96;66.68;101862.19;15616078;28;20441;-61
2021/11/18 16:54:17;;;;;;;1999.90;999.90;;;;;;;12.00;66.48;101843.66;15606231;28;20046;-62
2021/11/18 17:01:53;;;;;;;1999.90;999.90;;;;;;;11.88;66.59;101847.00;15577038;28;20080;-62
2021/11/18 17:09:31;;;;;;;1999.90;999.90;;;;;;;11.86;66.81;101854.84;15584088;28;20148;-61
2021/11/18 17:17:08;;;;;;;1999.90;999.90;;;;;;;11.76;66.79;101855.88;15596986;28;20072;-62
2021/11/18 17:24:43;;;;;;;1999.90;999.90;;;;;;;11.58;68.32;101848.47;15569803;28;20440;-62
2021/11/18 17:32:21;;;;;;;1999.90;999.90;;;;;;;11.43;71.24;101868.34;15607034;28;20048;-64
2021/11/18 17:39:59;;;;;;;1999.90;999.90;;;;;;;11.35;72.28;101863.47;15584801;28;20107;-62
2021/11/18 17:47:35;;;;;;;1999.90;999.90;;;;;;;11.16;73.88;101842.06;15578239;28;20050;-60
2021/11/18 17:55:12;;;;;;;1999.90;999.90;;;;;;;11.04;75.32;101838.09;15548445;28;20123;-60
2021/11/18 18:02:45;;;;;;;1999.90;999.90;;;;;;;11.16;75.68;101838.44;15594975;28;20125;-61
2021/11/18 18:10:19;;;;;;;1999.90;999.90;;;;;;;10.88;77.42;101830.03;15569570;28;20111;-60
2021/11/18 18:18:01;;;;;;;1999.90;999.90;;;;;;;10.58;78.85;101834.22;15612017;28;20052;-62
2021/11/18 18:25:36;;;;;;;1999.90;999.90;;;;;;;10.73;79.02;101846.22;15550743;28;20140;-60
2021/11/18 18:33:09;;;;;;;1999.90;999.90;;;;;;;10.77;78.91;101816.56;15563699;28;20087;-59
2021/11/18 18:40:46;;;;;;;1999.90;999.90;;;;;;;10.58;79.86;101814.66;15556793;28;20129;-60
2021/11/18 18:48:21;;;;;;;1999.90;999.90;;;;;;;10.57;80.65;101810.22;15584389;28;20042;-61
2021/11/18 18:55:56;;;;;;;1999.90;999.90;;;;;;;10.51;80.21;101811.44;15583647;28;20083;-60
2021/11/18 19:03:28;;;;;;;1999.90;999.90;;;;;;;10.43;81.40;101802.97;15598289;28;20073;-60
2021/11/18 19:11:09;;;;;;;1999.90;999.90;;;;;;;10.61;81.00;101810.44;15593931;28;20072;-60
2021/11/18 19:18:44;;;;;;;1999.90;999.90;;;;;;;10.47;81.34;101798.41;15599180;28;20053;-58
2021/11/18 19:26:21;;;;;;;1999.90;999.90;;;;;;;10.31;81.87;101781.09;15611764;28;20050;-59
2021/11/18 19:33:54;;;;;;;1999.90;999.90;;;;;;;10.67;80.69;101776.53;15599879;28;20056;-62
2021/11/18 19:41:32;;;;;;;1999.90;999.90;;;;;;;10.58;80.92;101770.00;15586676;28;20100;-61
2021/11/18 19:49:06;;;;;;;1999.90;999.90;;;;;;;10.60;80.67;101769.69;15582020;28;20068;-63
2021/11/18 19:56:41;;;;;;;1999.90;999.90;;;;;;;10.65;81.10;101794.75;15617523;28;20060;-59
2021/11/18 20:04:14;;;;;;;1999.90;999.90;;;;;;;10.43;81.63;101819.72;15580145;28;20370;-61
2021/11/18 20:11:49;;;;;;;;;;;;;;;10.81;80.68;101818.44;15587204;28;20403;-62
2021/11/18 20:19:22;;;;;;;1999.90;999.90;;;;;;;10.74;80.51;101804.06;15614143;28;19925;-64
2021/11/18 20:26:58;;;;;;;1999.90;999.90;;;;;;;10.70;81.25;101786.25;15613247;28;20378;-64
2021/11/18 20:34:39;;;;;;;1999.90;999.90;;;;;;;10.64;81.01;101779.13;15615421;28;20508;-64
2021/11/18 20:42:17;;;;;;;1999.90;999.90;;;;;;;10.50;81.92;101767.94;15600671;28;20513;-60
2021/11/18 20:49:52;;;;;;;1999.90;999.90;;;;;;;10.53;81.43;101775.69;15628382;28;20124;-59
2021/11/18 20:57:32;;;;;;;1999.90;999.90;;;;;;;10.85;80.45;101785.16;15593743;28;20071;-60
2021/11/18 21:05:05;;;;;;;1999.90;999.90;;;;;;;10.66;80.54;101762.91;15570512;28;20044;-62
2021/11/18 21:12:41;;;;;;;1999.90;999.90;;;;;;;10.33;81.79;101767.69;15589254;28;20056;-59
2021/11/18 21:20:18;;;;;;;1999.90;999.90;;;;;;;10.58;81.04;101771.97;15586485;28;20069;-61
2021/11/18 21:27:53;;;;;;;1999.90;999.90;;;;;;;10.92;79.94;101774.38;15575936;28;20483;-61
2021/11/18 21:35:26;;;;;;;1999.90;999.90;;;;;;;10.64;80.64;101781.94;15620561;28;20046;-61
2021/11/18 21:43:00;;;;;;;1999.90;999.90;;;;;;;10.89;80.24;101783.38;15597501;28;20155;-58
2021/11/18 21:50:37;;;;;;;1999.90;999.90;;;;;;;11.13;79.08;101784.00;15629454;28;20102;-61
2021/11/18 21:58:11;;;;;;;1999.90;999.90;;;;;;;11.00;79.71;101796.00;15593274;28;20496;-62
2021/11/18 22:05:50;;;;;;;1999.90;999.90;;;;;;;11.08;79.16;101798.09;15675507;22;20052;-61
2021/11/18 22:13:27;;;;;;;1999.90;999.90;;;;;;;11.27;79.01;101787.63;15696113;28;20087;-62
2021/11/18 22:21:03;;;;;;;1999.90;999.90;;;;;;;11.32;78.77;101783.06;15694613;28;20048;-60
2021/11/18 22:28:38;;;;;;;1999.90;999.90;;;;;;;11.41;78.66;101772.81;15680820;28;20450;-60
2021/11/18 22:36:13;;;;;;;1999.90;999.90;;;;;;;11.45;78.78;101774.66;15704992;28;20134;-63
2021/11/18 22:43:47;;;;;;;1999.90;999.90;;;;;;;11.25;79.42;101775.94;15709844;28;20051;-63
2021/11/18 22:51:24;;;;;;;1999.90;999.90;;;;;;;11.45;78.98;101757.88;15711084;28;20366;-63
2021/11/18 22:59:01;;;;;;;1999.90;999.90;;;;;;;11.23;79.51;101760.63;15741368;28;20048;-63
2021/11/18 23:06:43;;;;;;;1999.90;999.90;;;;;;;11.32;79.33;101794.25;15747174;28;20056;-63
2021/11/18 23:14:19;;;;;;;1999.90;999.90;;;;;;;11.43;79.39;101785.31;15738562;28;20045;-61
2021/11/18 23:21:55;;;;;;;1999.90;999.90;;;;;;;11.21;79.84;101777.69;15710951;28;20067;-61
2021/11/18 23:29:32;;;;;;;1999.90;999.90;;;;;;;11.52;79.41;101782.63;15725540;28;20044;-63
2021/11/18 23:37:07;;;;;;;1999.90;999.90;;;;;;;11.24;80.35;101779.84;15746067;28;20045;-62
2021/11/18 23:44:41;;;;;;;1999.90;999.90;;;;;;;11.40;80.21;101785.97;15703700;28;20190;-62
2021/11/18 23:52:15;;;;;;;1999.90;999.90;;;;;;;11.44;79.96;101781.38;15733676;28;20128;-61
2021/11/18 23:59:50;;;;;;;1999.90;999.90;;;;;;;11.43;80.24;101773.31;15729533;28;20098;-60
